createdAt,value
2023-08-23T00:04:42.852Z,23.80
2023-08-23T00:09:48.606Z,23.90
2023-08-23T00:14:55.218Z,24.02
2023-08-23T00:20:01.486Z,24.12
2023-08-23T00:25:06.811Z,24.23
2023-08-23T00:30:11.953Z,24.31
2023-08-23T00:35:18.083Z,24.43
2023-08-23T00:40:23.416Z,24.57
2023-08-23T00:45:34.262Z,24.71
2023-08-23T00:50:39.931Z,24.84
2023-08-23T00:55:45.966Z,24.96
2023-08-23T01:00:52.144Z,25.04
2023-08-23T01:06:06.773Z,25.13
2023-08-23T01:11:28.238Z,25.22
2023-08-23T01:16:36.130Z,25.34
2023-08-23T01:21:43.689Z,25.46
2023-08-23T01:26:48.469Z,25.58
2023-08-23T01:32:05.088Z,25.73
2023-08-23T01:37:15.170Z,25.87
2023-08-23T01:42:20.416Z,25.98
2023-08-23T01:47:25.409Z,26.11
2023-08-23T01:52:30.068Z,26.27
2023-08-23T01:57:34.845Z,26.38
2023-08-23T02:02:41.309Z,26.48
2023-08-23T02:07:48.140Z,26.57
2023-08-23T02:12:54.125Z,26.64
2023-08-23T02:17:59.029Z,26.68
2023-08-23T02:23:03.630Z,26.75
2023-08-23T02:28:08.538Z,26.87
2023-08-23T02:33:13.405Z,26.95
2023-08-23T02:38:20.305Z,27.03
2023-08-23T02:43:27.293Z,27.09
2023-08-23T02:48:32.775Z,27.07
2023-08-23T02:53:37.827Z,27.07
2023-08-23T02:58:44.404Z,27.10
2023-08-23T03:03:51.434Z,27.12
2023-08-23T03:08:58.420Z,27.16
2023-08-23T03:14:03.335Z,27.18
2023-08-23T03:19:08.318Z,27.20
2023-08-23T03:24:14.042Z,27.20
2023-08-23T03:29:20.650Z,27.22
2023-08-23T03:34:27.641Z,27.28
2023-08-23T03:39:33.782Z,27.35
2023-08-23T03:44:39.954Z,27.41
2023-08-23T03:49:46.343Z,27.50
2023-08-23T03:54:51.399Z,27.54
2023-08-23T03:59:56.537Z,27.61
2023-08-23T04:05:03.827Z,27.63
2023-08-23T04:10:11.213Z,27.67
2023-08-23T04:15:15.668Z,27.69
2023-08-23T04:20:21.492Z,27.72
2023-08-23T04:25:27.280Z,27.82
2023-08-23T04:30:33.054Z,27.88
2023-08-23T04:35:40.896Z,27.89
2023-08-23T04:40:47.640Z,27.87
2023-08-23T04:45:55.339Z,27.88
2023-08-23T04:51:01.425Z,27.87
2023-08-23T04:56:07.418Z,27.90
2023-08-23T05:01:12.692Z,27.91
2023-08-23T05:06:22.919Z,28.02
2023-08-23T05:11:30.658Z,28.04
2023-08-23T05:16:36.496Z,28.05
2023-08-23T05:21:42.157Z,28.08
2023-08-23T05:26:47.242Z,28.08
2023-08-23T05:31:52.616Z,28.10
2023-08-23T05:36:57.808Z,28.13
2023-08-23T05:42:07.474Z,28.16
2023-08-23T05:47:12.720Z,28.22
2023-08-23T05:52:17.453Z,28.26
2023-08-23T05:57:23.697Z,28.26
2023-08-23T06:02:29.721Z,28.27
2023-08-23T06:07:35.127Z,28.31
2023-08-23T06:12:41.568Z,28.36
2023-08-23T06:17:47.012Z,28.42
2023-08-23T06:22:53.674Z,28.47
2023-08-23T06:27:59.371Z,28.54
2023-08-23T06:33:04.244Z,28.56
2023-08-23T06:38:09.457Z,28.59
2023-08-23T06:43:23.107Z,28.57
2023-08-23T06:48:29.360Z,28.59
2023-08-23T06:53:36.850Z,28.61
2023-08-23T06:58:42.963Z,28.62
2023-08-23T07:03:48.277Z,28.64
2023-08-23T07:08:54.689Z,28.67
2023-08-23T07:13:59.685Z,28.66
2023-08-23T07:19:09.208Z,28.66
2023-08-23T07:24:14.315Z,28.65
2023-08-23T07:29:20.321Z,28.62
2023-08-23T07:34:25.299Z,28.56
2023-08-23T07:39:30.221Z,28.46
2023-08-23T07:44:37.140Z,28.39
2023-08-23T07:49:42.192Z,28.32
2023-08-23T07:54:47.170Z,28.29
2023-08-23T07:59:52.291Z,28.26
2023-08-23T08:04:59.109Z,28.25
2023-08-23T08:10:04.081Z,28.22
2023-08-23T08:15:11.434Z,28.18
2023-08-23T08:20:17.657Z,28.13
2023-08-23T08:25:22.672Z,28.08
2023-08-23T08:30:26.922Z,28.08
2023-08-23T08:35:31.938Z,28.05
2023-08-23T08:40:39.640Z,28.06
2023-08-23T08:45:46.415Z,28.05
2023-08-23T08:50:52.512Z,28.01
2023-08-23T08:55:59.995Z,27.97
2023-08-23T09:01:07.434Z,27.88
2023-08-23T09:06:13.406Z,27.80
2023-08-23T09:11:19.153Z,27.72
2023-08-23T09:16:29.794Z,27.66
2023-08-23T09:21:38.436Z,27.57
2023-08-23T09:26:43.946Z,27.51
2023-08-23T09:31:48.924Z,27.45
2023-08-23T09:36:56.063Z,27.36
2023-08-23T09:42:10.267Z,27.33
2023-08-23T09:47:21.585Z,27.26
2023-08-23T09:52:32.383Z,27.19
2023-08-23T09:57:38.759Z,27.13
2023-08-23T10:02:44.783Z,27.13
2023-08-23T10:07:50.093Z,27.10
2023-08-23T10:12:59.089Z,27.02
2023-08-23T10:18:07.277Z,26.95
2023-08-23T10:23:15.355Z,26.90
2023-08-23T10:28:20.969Z,26.82
2023-08-23T10:33:26.453Z,26.76
2023-08-23T10:38:31.492Z,26.73
2023-08-23T10:43:36.999Z,26.79
2023-08-23T10:48:42.544Z,26.83
2023-08-23T10:53:47.771Z,26.77
2023-08-23T10:58:54.425Z,26.68
2023-08-23T11:03:59.805Z,26.60
2023-08-23T11:09:06.308Z,26.54
2023-08-23T11:14:11.442Z,26.51
2023-08-23T11:19:16.898Z,26.56
2023-08-23T11:24:22.142Z,26.51
2023-08-23T11:29:27.786Z,26.44
2023-08-23T11:34:32.260Z,26.41
2023-08-23T11:39:37.285Z,26.34
2023-08-23T11:44:43.996Z,26.29
2023-08-23T11:49:53.287Z,26.24
2023-08-23T11:54:58.238Z,26.21
2023-08-23T12:00:03.636Z,26.19
2023-08-23T12:05:13.558Z,26.16
2023-08-23T12:10:18.613Z,26.13
2023-08-23T12:15:23.389Z,26.07
2023-08-23T12:20:28.367Z,26.04
2023-08-23T12:25:33.335Z,25.98
2023-08-23T12:30:38.466Z,25.94
2023-08-23T12:35:45.664Z,25.86
2023-08-23T12:40:50.720Z,25.76
2023-08-23T12:45:57.421Z,25.63
2023-08-23T12:51:03.431Z,25.44
2023-08-23T12:56:10.244Z,25.30
2023-08-23T13:01:17.234Z,25.21
2023-08-23T13:06:22.897Z,25.04
2023-08-23T13:11:29.614Z,24.88
2023-08-23T13:16:34.616Z,24.70
2023-08-23T13:21:39.625Z,24.55
2023-08-23T13:26:44.717Z,24.39
2023-08-23T13:31:49.918Z,24.25
2023-08-23T13:36:54.962Z,24.06
2023-08-23T13:42:00.481Z,23.98
2023-08-23T13:47:05.567Z,23.82
2023-08-23T13:52:11.778Z,23.71
2023-08-23T13:57:16.719Z,23.61
2023-08-23T14:02:21.731Z,23.43
2023-08-23T14:07:28.544Z,23.37
2023-08-23T14:12:33.631Z,23.33
2023-08-23T14:17:39.797Z,23.36
2023-08-23T14:22:48.090Z,23.36
2023-08-23T14:27:55.903Z,23.34
2023-08-23T14:33:00.735Z,23.32
2023-08-23T14:38:05.998Z,23.23
2023-08-23T14:43:11.025Z,23.23
2023-08-23T14:48:16.169Z,23.22
2023-08-23T14:53:21.050Z,23.16
2023-08-23T14:58:26.139Z,23.12
2023-08-23T15:03:38.053Z,23.08
2023-08-23T15:08:43.076Z,23.11
2023-08-23T15:13:52.970Z,23.15
2023-08-23T15:18:59.621Z,23.13
2023-08-23T15:24:05.118Z,23.08
2023-08-23T15:29:12.223Z,23.00
2023-08-23T15:34:17.208Z,22.99
2023-08-23T15:39:26.297Z,22.98
2023-08-23T15:44:31.099Z,23.02
2023-08-23T15:49:36.580Z,23.05
2023-08-23T15:54:41.766Z,23.05
2023-08-23T15:59:46.720Z,23.02
2023-08-23T16:04:53.004Z,23.01
2023-08-23T16:09:57.888Z,22.99
2023-08-23T16:15:03.051Z,23.01
2023-08-23T16:20:09.137Z,22.99
2023-08-23T16:25:15.377Z,22.96
2023-08-23T16:30:24.658Z,22.89
2023-08-23T16:35:31.349Z,22.83
2023-08-23T16:40:38.255Z,22.85
2023-08-23T16:45:43.743Z,22.85
2023-08-23T16:50:50.463Z,22.83
2023-08-23T16:55:55.493Z,22.82
2023-08-23T17:01:00.358Z,22.79
2023-08-23T17:06:05.360Z,22.79
2023-08-23T17:11:10.333Z,22.75
2023-08-23T17:16:16.593Z,22.72
2023-08-23T17:21:22.860Z,22.71
2023-08-23T17:26:27.555Z,22.72
2023-08-23T17:31:32.432Z,22.73
2023-08-23T17:36:37.441Z,22.72
2023-08-23T17:41:42.819Z,22.68
2023-08-23T17:46:49.594Z,22.69
2023-08-23T17:51:54.766Z,22.67
2023-08-23T17:57:00.983Z,22.66
2023-08-23T18:02:05.976Z,22.59
2023-08-23T18:07:14.191Z,22.57
2023-08-23T18:12:19.426Z,22.56
2023-08-23T18:17:24.468Z,22.51
2023-08-23T18:22:29.443Z,22.52
2023-08-23T18:27:34.378Z,22.52
2023-08-23T18:32:40.217Z,22.50
2023-08-23T18:37:45.059Z,22.49
2023-08-23T18:42:51.183Z,22.38
2023-08-23T18:47:56.591Z,22.31
2023-08-23T18:53:01.671Z,22.23
2023-08-23T18:58:06.952Z,22.15
2023-08-23T19:03:14.669Z,22.17
2023-08-23T19:08:22.223Z,22.27
2023-08-23T19:13:27.528Z,22.28
2023-08-23T19:18:32.603Z,22.29
2023-08-23T19:23:37.740Z,22.28
2023-08-23T19:28:42.853Z,22.28
2023-08-23T19:33:47.854Z,22.28
2023-08-23T19:38:53.220Z,22.27
2023-08-23T19:43:58.425Z,22.28
2023-08-23T19:49:03.555Z,22.27
2023-08-23T19:54:08.671Z,22.26
2023-08-23T19:59:13.826Z,22.21
2023-08-23T20:04:18.915Z,22.12
2023-08-23T20:09:23.941Z,22.09
2023-08-23T20:14:33.551Z,22.07
2023-08-23T20:19:39.014Z,22.15
2023-08-23T20:24:44.377Z,22.19
2023-08-23T20:29:51.642Z,22.18
2023-08-23T20:34:57.216Z,22.15
2023-08-23T20:40:02.812Z,22.08
2023-08-23T20:45:08.857Z,22.05
2023-08-23T20:50:13.948Z,22.17
2023-08-23T20:55:19.880Z,22.14
2023-08-23T21:00:25.227Z,22.10
2023-08-23T21:05:32.130Z,22.06
2023-08-23T21:10:42.339Z,22.04
2023-08-23T21:15:49.721Z,22.03
2023-08-23T21:20:55.097Z,22.03
2023-08-23T21:26:00.702Z,21.99
2023-08-23T21:31:06.585Z,21.99
2023-08-23T21:36:11.826Z,21.98
2023-08-23T21:41:17.299Z,21.99
2023-08-23T21:46:23.064Z,21.96
2023-08-23T21:51:30.651Z,21.90
2023-08-23T21:56:36.086Z,21.85
2023-08-23T22:01:41.681Z,21.84
2023-08-23T22:06:47.364Z,21.83
2023-08-23T22:11:53.063Z,21.84
2023-08-23T22:16:59.076Z,21.84
2023-08-23T22:22:04.745Z,21.83
2023-08-23T22:27:10.091Z,21.81
2023-08-23T22:32:15.433Z,21.76
2023-08-23T22:37:20.722Z,21.71
2023-08-23T22:42:29.980Z,21.69
2023-08-23T22:47:36.764Z,21.67
2023-08-23T22:52:41.920Z,21.66
2023-08-23T22:57:49.689Z,21.63
2023-08-23T23:02:55.384Z,21.59
2023-08-23T23:08:01.035Z,21.60
2023-08-23T23:13:06.610Z,21.63
2023-08-23T23:18:12.119Z,21.67
2023-08-23T23:23:19.100Z,21.78
2023-08-23T23:28:24.796Z,21.77
2023-08-23T23:33:31.964Z,21.77
2023-08-23T23:38:42.669Z,21.75
2023-08-23T23:43:48.161Z,21.69
2023-08-23T23:48:54.957Z,21.65
2023-08-23T23:54:00.481Z,21.41
2023-08-23T23:59:07.127Z,21.18
